sensor_id;sensor_type;location;lat;lon;timestamp;P1;durP1;ratioP1;P2;durP2;ratioP2
55423;SDS011;41294;42.666;23.350;2023-09-18T00:00:53;25.43;;;22.80;;
55423;SDS011;41294;42.666;23.350;2023-09-18T00:03:21;26.47;;;24.07;;
55423;SDS011;41294;42.666;23.350;2023-09-18T00:05:49;25.33;;;22.93;;
55423;SDS011;41294;42.666;23.350;2023-09-18T00:08:18;26.52;;;24.05;;
55423;SDS011;41294;42.666;23.350;2023-09-18T00:10:53;26.67;;;24.00;;
55423;SDS011;41294;42.666;23.350;2023-09-18T00:13:19;27.05;;;24.55;;
55423;SDS011;41294;42.666;23.350;2023-09-18T00:15:46;28.97;;;26.37;;
55423;SDS011;41294;42.666;23.350;2023-09-18T00:18:13;27.53;;;24.83;;
55423;SDS011;41294;42.666;23.350;2023-09-18T00:20:39;27.13;;;24.48;;
55423;SDS011;41294;42.666;23.350;2023-09-18T00:23:06;28.63;;;25.77;;
55423;SDS011;41294;42.666;23.350;2023-09-18T00:25:33;27.67;;;25.17;;
55423;SDS011;41294;42.666;23.350;2023-09-18T00:27:58;29.20;;;26.37;;
55423;SDS011;41294;42.666;23.350;2023-09-18T00:30:24;28.83;;;26.03;;
55423;SDS011;41294;42.666;23.350;2023-09-18T00:32:49;29.13;;;26.53;;
55423;SDS011;41294;42.666;23.350;2023-09-18T00:35:15;29.13;;;26.43;;
55423;SDS011;41294;42.666;23.350;2023-09-18T00:37:40;28.87;;;26.17;;
55423;SDS011;41294;42.666;23.350;2023-09-18T00:40:06;29.53;;;26.70;;
55423;SDS011;41294;42.666;23.350;2023-09-18T00:42:32;26.98;;;24.48;;
55423;SDS011;41294;42.666;23.350;2023-09-18T00:44:58;28.20;;;25.60;;
55423;SDS011;41294;42.666;23.350;2023-09-18T00:47:23;28.50;;;25.93;;
55423;SDS011;41294;42.666;23.350;2023-09-18T00:49:49;29.47;;;26.50;;
55423;SDS011;41294;42.666;23.350;2023-09-18T00:52:17;28.17;;;25.57;;
55423;SDS011;41294;42.666;23.350;2023-09-18T00:54:45;29.03;;;26.30;;
55423;SDS011;41294;42.666;23.350;2023-09-18T00:57:12;28.57;;;25.77;;
55423;SDS011;41294;42.666;23.350;2023-09-18T00:59:38;29.70;;;26.97;;
55423;SDS011;41294;42.666;23.350;2023-09-18T01:02:04;28.30;;;25.70;;
55423;SDS011;41294;42.666;23.350;2023-09-18T01:04:29;27.17;;;24.67;;
55423;SDS011;41294;42.666;23.350;2023-09-18T01:06:57;25.93;;;23.37;;
55423;SDS011;41294;42.666;23.350;2023-09-18T01:09:24;24.98;;;22.65;;
55423;SDS011;41294;42.666;23.350;2023-09-18T01:14:33;25.63;;;23.30;;
55423;SDS011;41294;42.666;23.350;2023-09-18T01:17:05;23.33;;;21.27;;
55423;SDS011;41294;42.666;23.350;2023-09-18T01:22:12;22.33;;;20.23;;
55423;SDS011;41294;42.666;23.350;2023-09-18T01:24:39;21.57;;;19.57;;
55423;SDS011;41294;42.666;23.350;2023-09-18T01:27:08;21.23;;;19.10;;
55423;SDS011;41294;42.666;23.350;2023-09-18T01:29:35;22.30;;;20.00;;
55423;SDS011;41294;42.666;23.350;2023-09-18T01:32:01;21.05;;;19.02;;
55423;SDS011;41294;42.666;23.350;2023-09-18T01:34:33;19.80;;;17.77;;
55423;SDS011;41294;42.666;23.350;2023-09-18T01:37:02;21.90;;;19.80;;
55423;SDS011;41294;42.666;23.350;2023-09-18T01:39:30;20.40;;;18.50;;
55423;SDS011;41294;42.666;23.350;2023-09-18T01:42:01;19.40;;;17.67;;
55423;SDS011;41294;42.666;23.350;2023-09-18T01:44:29;19.63;;;17.83;;
55423;SDS011;41294;42.666;23.350;2023-09-18T01:46:55;19.23;;;17.55;;
55423;SDS011;41294;42.666;23.350;2023-09-18T01:49:29;19.58;;;17.88;;
55423;SDS011;41294;42.666;23.350;2023-09-18T01:51:56;18.93;;;17.17;;
55423;SDS011;41294;42.666;23.350;2023-09-18T01:54:22;20.23;;;18.37;;
55423;SDS011;41294;42.666;23.350;2023-09-18T01:56:48;19.87;;;18.07;;
55423;SDS011;41294;42.666;23.350;2023-09-18T01:59:14;20.33;;;18.33;;
55423;SDS011;41294;42.666;23.350;2023-09-18T02:01:39;19.73;;;17.80;;
55423;SDS011;41294;42.666;23.350;2023-09-18T02:04:04;20.10;;;18.30;;
55423;SDS011;41294;42.666;23.350;2023-09-18T02:06:30;21.30;;;19.30;;
55423;SDS011;41294;42.666;23.350;2023-09-18T02:08:56;21.27;;;19.38;;
55423;SDS011;41294;42.666;23.350;2023-09-18T02:11:21;21.17;;;19.10;;
55423;SDS011;41294;42.666;23.350;2023-09-18T02:13:47;21.17;;;19.23;;
55423;SDS011;41294;42.666;23.350;2023-09-18T02:16:12;20.73;;;18.73;;
55423;SDS011;41294;42.666;23.350;2023-09-18T02:18:37;21.80;;;19.87;;
55423;SDS011;41294;42.666;23.350;2023-09-18T02:21:03;22.17;;;19.87;;
55423;SDS011;41294;42.666;23.350;2023-09-18T02:23:28;22.00;;;20.05;;
55423;SDS011;41294;42.666;23.350;2023-09-18T02:25:57;20.90;;;19.05;;
55423;SDS011;41294;42.666;23.350;2023-09-18T02:28:23;22.67;;;20.40;;
55423;SDS011;41294;42.666;23.350;2023-09-18T02:30:48;21.80;;;19.92;;
55423;SDS011;41294;42.666;23.350;2023-09-18T02:33:14;20.17;;;18.30;;
55423;SDS011;41294;42.666;23.350;2023-09-18T02:35:40;19.92;;;17.98;;
55423;SDS011;41294;42.666;23.350;2023-09-18T02:38:08;19.00;;;17.33;;
55423;SDS011;41294;42.666;23.350;2023-09-18T02:40:33;17.77;;;16.07;;
55423;SDS011;41294;42.666;23.350;2023-09-18T02:42:59;18.55;;;16.70;;
55423;SDS011;41294;42.666;23.350;2023-09-18T02:45:26;18.80;;;17.02;;
55423;SDS011;41294;42.666;23.350;2023-09-18T02:47:51;18.50;;;16.65;;
55423;SDS011;41294;42.666;23.350;2023-09-18T02:50:16;19.33;;;17.53;;
55423;SDS011;41294;42.666;23.350;2023-09-18T02:52:42;20.23;;;17.00;;
55423;SDS011;41294;42.666;23.350;2023-09-18T02:55:07;18.43;;;16.50;;
55423;SDS011;41294;42.666;23.350;2023-09-18T02:57:35;19.27;;;17.27;;
55423;SDS011;41294;42.666;23.350;2023-09-18T03:00:00;18.52;;;16.58;;
55423;SDS011;41294;42.666;23.350;2023-09-18T03:02:25;20.60;;;18.37;;
55423;SDS011;41294;42.666;23.350;2023-09-18T03:04:51;20.87;;;18.67;;
55423;SDS011;41294;42.666;23.350;2023-09-18T03:07:16;19.90;;;18.03;;
55423;SDS011;41294;42.666;23.350;2023-09-18T03:09:41;19.40;;;17.60;;
55423;SDS011;41294;42.666;23.350;2023-09-18T03:12:07;19.33;;;17.63;;
55423;SDS011;41294;42.666;23.350;2023-09-18T03:14:33;19.27;;;17.47;;
55423;SDS011;41294;42.666;23.350;2023-09-18T03:16:59;20.57;;;18.33;;
55423;SDS011;41294;42.666;23.350;2023-09-18T03:19:24;20.47;;;18.57;;
55423;SDS011;41294;42.666;23.350;2023-09-18T03:21:52;19.67;;;17.87;;
55423;SDS011;41294;42.666;23.350;2023-09-18T03:24:17;20.03;;;18.23;;
55423;SDS011;41294;42.666;23.350;2023-09-18T03:26:43;18.90;;;17.23;;
55423;SDS011;41294;42.666;23.350;2023-09-18T03:29:08;20.20;;;18.50;;
55423;SDS011;41294;42.666;23.350;2023-09-18T03:31:34;19.20;;;17.17;;
55423;SDS011;41294;42.666;23.350;2023-09-18T03:33:59;20.20;;;18.30;;
55423;SDS011;41294;42.666;23.350;2023-09-18T03:36:25;21.10;;;19.00;;
55423;SDS011;41294;42.666;23.350;2023-09-18T03:38:50;21.60;;;19.40;;
55423;SDS011;41294;42.666;23.350;2023-09-18T03:41:16;22.33;;;20.13;;
55423;SDS011;41294;42.666;23.350;2023-09-18T03:43:41;22.03;;;20.03;;
55423;SDS011;41294;42.666;23.350;2023-09-18T03:46:07;21.77;;;19.60;;
55423;SDS011;41294;42.666;23.350;2023-09-18T03:48:33;23.57;;;20.50;;
55423;SDS011;41294;42.666;23.350;2023-09-18T03:51:05;24.17;;;21.87;;
55423;SDS011;41294;42.666;23.350;2023-09-18T03:53:35;23.93;;;21.63;;
55423;SDS011;41294;42.666;23.350;2023-09-18T03:56:00;24.93;;;22.40;;
55423;SDS011;41294;42.666;23.350;2023-09-18T03:58:26;24.93;;;22.33;;
55423;SDS011;41294;42.666;23.350;2023-09-18T04:00:52;24.40;;;21.73;;
55423;SDS011;41294;42.666;23.350;2023-09-18T04:03:17;22.97;;;20.80;;
55423;SDS011;41294;42.666;23.350;2023-09-18T04:05:43;23.13;;;20.90;;
55423;SDS011;41294;42.666;23.350;2023-09-18T04:08:08;23.17;;;20.83;;
55423;SDS011;41294;42.666;23.350;2023-09-18T04:10:34;23.77;;;21.47;;
55423;SDS011;41294;42.666;23.350;2023-09-18T04:13:00;26.83;;;24.07;;
55423;SDS011;41294;42.666;23.350;2023-09-18T04:15:26;24.90;;;22.50;;
55423;SDS011;41294;42.666;23.350;2023-09-18T04:17:53;25.73;;;23.40;;
55423;SDS011;41294;42.666;23.350;2023-09-18T04:20:19;25.80;;;23.10;;
55423;SDS011;41294;42.666;23.350;2023-09-18T04:22:45;26.00;;;23.10;;
55423;SDS011;41294;42.666;23.350;2023-09-18T04:25:16;25.90;;;23.30;;
55423;SDS011;41294;42.666;23.350;2023-09-18T04:27:41;25.40;;;22.90;;
55423;SDS011;41294;42.666;23.350;2023-09-18T04:30:07;26.47;;;24.00;;
55423;SDS011;41294;42.666;23.350;2023-09-18T04:32:35;26.10;;;23.30;;
55423;SDS011;41294;42.666;23.350;2023-09-18T04:35:02;24.90;;;22.33;;
55423;SDS011;41294;42.666;23.350;2023-09-18T04:37:30;26.17;;;21.47;;
55423;SDS011;41294;42.666;23.350;2023-09-18T04:39:57;23.20;;;20.70;;
55423;SDS011;41294;42.666;23.350;2023-09-18T04:42:23;24.93;;;20.13;;
55423;SDS011;41294;42.666;23.350;2023-09-18T04:44:48;23.37;;;20.67;;
55423;SDS011;41294;42.666;23.350;2023-09-18T04:47:13;24.63;;;21.83;;
55423;SDS011;41294;42.666;23.350;2023-09-18T04:49:39;23.93;;;21.30;;
55423;SDS011;41294;42.666;23.350;2023-09-18T04:52:04;23.10;;;20.60;;
55423;SDS011;41294;42.666;23.350;2023-09-18T04:54:30;24.80;;;21.57;;
55423;SDS011;41294;42.666;23.350;2023-09-18T04:56:56;24.30;;;21.97;;
55423;SDS011;41294;42.666;23.350;2023-09-18T04:59:21;23.17;;;20.73;;
55423;SDS011;41294;42.666;23.350;2023-09-18T05:01:46;25.57;;;22.97;;
55423;SDS011;41294;42.666;23.350;2023-09-18T05:04:12;23.63;;;21.33;;
55423;SDS011;41294;42.666;23.350;2023-09-18T05:06:39;26.65;;;23.27;;
55423;SDS011;41294;42.666;23.350;2023-09-18T05:09:05;24.35;;;21.85;;
55423;SDS011;41294;42.666;23.350;2023-09-18T05:11:32;21.77;;;19.60;;
55423;SDS011;41294;42.666;23.350;2023-09-18T05:13:57;20.42;;;18.45;;
55423;SDS011;41294;42.666;23.350;2023-09-18T05:16:22;23.15;;;20.55;;
55423;SDS011;41294;42.666;23.350;2023-09-18T05:18:48;26.00;;;22.17;;
55423;SDS011;41294;42.666;23.350;2023-09-18T05:21:13;25.50;;;22.85;;
55423;SDS011;41294;42.666;23.350;2023-09-18T05:23:38;24.27;;;20.83;;
55423;SDS011;41294;42.666;23.350;2023-09-18T05:26:04;23.42;;;21.20;;
55423;SDS011;41294;42.666;23.350;2023-09-18T05:28:31;26.88;;;21.10;;
55423;SDS011;41294;42.666;23.350;2023-09-18T05:30:56;21.65;;;19.52;;
55423;SDS011;41294;42.666;23.350;2023-09-18T05:33:22;19.75;;;17.65;;
55423;SDS011;41294;42.666;23.350;2023-09-18T05:35:47;22.25;;;19.90;;
55423;SDS011;41294;42.666;23.350;2023-09-18T05:38:14;21.88;;;19.77;;
55423;SDS011;41294;42.666;23.350;2023-09-18T05:40:39;22.50;;;20.30;;
55423;SDS011;41294;42.666;23.350;2023-09-18T05:43:05;22.17;;;19.38;;
55423;SDS011;41294;42.666;23.350;2023-09-18T05:45:31;21.45;;;19.15;;
55423;SDS011;41294;42.666;23.350;2023-09-18T05:47:57;19.52;;;17.75;;
55423;SDS011;41294;42.666;23.350;2023-09-18T05:50:29;23.00;;;20.60;;
55423;SDS011;41294;42.666;23.350;2023-09-18T05:52:57;21.05;;;19.10;;
55423;SDS011;41294;42.666;23.350;2023-09-18T05:55:29;21.52;;;18.88;;
55423;SDS011;41294;42.666;23.350;2023-09-18T05:58:01;22.33;;;18.73;;
55423;SDS011;41294;42.666;23.350;2023-09-18T06:00:29;20.45;;;18.48;;
55423;SDS011;41294;42.666;23.350;2023-09-18T06:02:55;19.73;;;17.65;;
55423;SDS011;41294;42.666;23.350;2023-09-18T06:05:21;21.38;;;18.38;;
55423;SDS011;41294;42.666;23.350;2023-09-18T06:07:47;20.67;;;18.67;;
55423;SDS011;41294;42.666;23.350;2023-09-18T06:10:16;18.55;;;16.63;;
55423;SDS011;41294;42.666;23.350;2023-09-18T06:12:43;20.75;;;18.52;;
55423;SDS011;41294;42.666;23.350;2023-09-18T06:15:10;18.38;;;16.60;;
55423;SDS011;41294;42.666;23.350;2023-09-18T06:17:37;17.95;;;16.27;;
55423;SDS011;41294;42.666;23.350;2023-09-18T06:20:07;18.10;;;16.23;;
55423;SDS011;41294;42.666;23.350;2023-09-18T06:22:35;16.77;;;15.05;;
55423;SDS011;41294;42.666;23.350;2023-09-18T06:25:04;18.30;;;15.45;;
55423;SDS011;41294;42.666;23.350;2023-09-18T06:27:30;15.18;;;13.82;;
55423;SDS011;41294;42.666;23.350;2023-09-18T06:29:57;15.65;;;14.02;;
55423;SDS011;41294;42.666;23.350;2023-09-18T06:32:23;15.60;;;14.10;;
55423;SDS011;41294;42.666;23.350;2023-09-18T06:34:48;15.30;;;13.73;;
55423;SDS011;41294;42.666;23.350;2023-09-18T06:37:13;16.45;;;14.00;;
55423;SDS011;41294;42.666;23.350;2023-09-18T06:39:39;15.75;;;14.25;;
55423;SDS011;41294;42.666;23.350;2023-09-18T06:42:05;15.10;;;13.30;;
55423;SDS011;41294;42.666;23.350;2023-09-18T06:44:30;14.73;;;13.15;;
55423;SDS011;41294;42.666;23.350;2023-09-18T06:46:56;15.73;;;14.18;;
55423;SDS011;41294;42.666;23.350;2023-09-18T06:49:21;16.25;;;14.25;;
55423;SDS011;41294;42.666;23.350;2023-09-18T06:51:47;17.13;;;15.35;;
55423;SDS011;41294;42.666;23.350;2023-09-18T06:54:12;17.10;;;15.43;;
55423;SDS011;41294;42.666;23.350;2023-09-18T06:56:37;16.33;;;14.82;;
55423;SDS011;41294;42.666;23.350;2023-09-18T06:59:03;18.17;;;16.23;;
55423;SDS011;41294;42.666;23.350;2023-09-18T07:01:29;17.42;;;15.68;;
55423;SDS011;41294;42.666;23.350;2023-09-18T07:03:56;18.02;;;16.30;;
55423;SDS011;41294;42.666;23.350;2023-09-18T07:06:22;18.35;;;16.45;;
55423;SDS011;41294;42.666;23.350;2023-09-18T07:08:48;17.90;;;16.08;;
55423;SDS011;41294;42.666;23.350;2023-09-18T07:11:16;18.60;;;15.70;;
55423;SDS011;41294;42.666;23.350;2023-09-18T07:13:43;16.15;;;14.50;;
55423;SDS011;41294;42.666;23.350;2023-09-18T07:16:10;17.00;;;15.30;;
55423;SDS011;41294;42.666;23.350;2023-09-18T07:18:35;15.98;;;14.48;;
55423;SDS011;41294;42.666;23.350;2023-09-18T07:21:01;18.33;;;16.35;;
55423;SDS011;41294;42.666;23.350;2023-09-18T07:23:26;20.65;;;16.67;;
55423;SDS011;41294;42.666;23.350;2023-09-18T07:25:52;18.10;;;16.15;;
55423;SDS011;41294;42.666;23.350;2023-09-18T07:28:18;17.33;;;15.63;;
55423;SDS011;41294;42.666;23.350;2023-09-18T07:30:44;16.92;;;15.40;;
55423;SDS011;41294;42.666;23.350;2023-09-18T07:33:10;17.55;;;15.85;;
55423;SDS011;41294;42.666;23.350;2023-09-18T07:35:36;17.02;;;15.32;;
55423;SDS011;41294;42.666;23.350;2023-09-18T07:38:03;18.20;;;16.58;;
55423;SDS011;41294;42.666;23.350;2023-09-18T07:40:28;16.52;;;15.02;;
55423;SDS011;41294;42.666;23.350;2023-09-18T07:42:54;16.95;;;15.25;;
55423;SDS011;41294;42.666;23.350;2023-09-18T07:45:19;17.23;;;15.65;;
55423;SDS011;41294;42.666;23.350;2023-09-18T07:47:45;15.63;;;14.30;;
55423;SDS011;41294;42.666;23.350;2023-09-18T07:50:10;18.27;;;16.48;;
55423;SDS011;41294;42.666;23.350;2023-09-18T07:52:37;16.90;;;15.15;;
55423;SDS011;41294;42.666;23.350;2023-09-18T07:55:02;21.42;;;16.75;;
55423;SDS011;41294;42.666;23.350;2023-09-18T07:57:28;18.27;;;16.58;;
55423;SDS011;41294;42.666;23.350;2023-09-18T07:59:55;17.58;;;15.85;;
55423;SDS011;41294;42.666;23.350;2023-09-18T08:02:20;17.92;;;15.98;;
55423;SDS011;41294;42.666;23.350;2023-09-18T08:04:46;16.30;;;14.77;;
55423;SDS011;41294;42.666;23.350;2023-09-18T08:07:12;16.73;;;15.23;;
55423;SDS011;41294;42.666;23.350;2023-09-18T08:09:37;18.02;;;16.33;;
55423;SDS011;41294;42.666;23.350;2023-09-18T08:12:04;17.42;;;15.18;;
55423;SDS011;41294;42.666;23.350;2023-09-18T08:14:30;15.95;;;14.38;;
55423;SDS011;41294;42.666;23.350;2023-09-18T08:17:00;15.57;;;14.07;;
55423;SDS011;41294;42.666;23.350;2023-09-18T08:19:26;15.95;;;14.52;;
55423;SDS011;41294;42.666;23.350;2023-09-18T08:21:55;14.85;;;13.50;;
55423;SDS011;41294;42.666;23.350;2023-09-18T08:24:21;15.82;;;14.32;;
55423;SDS011;41294;42.666;23.350;2023-09-18T08:26:47;15.45;;;13.90;;
55423;SDS011;41294;42.666;23.350;2023-09-18T08:29:13;14.57;;;13.23;;
55423;SDS011;41294;42.666;23.350;2023-09-18T08:31:39;14.75;;;13.45;;
55423;SDS011;41294;42.666;23.350;2023-09-18T08:34:04;14.43;;;13.13;;
55423;SDS011;41294;42.666;23.350;2023-09-18T08:36:29;15.23;;;13.70;;
55423;SDS011;41294;42.666;23.350;2023-09-18T08:38:57;15.55;;;13.95;;
55423;SDS011;41294;42.666;23.350;2023-09-18T08:41:23;13.20;;;12.00;;
55423;SDS011;41294;42.666;23.350;2023-09-18T08:43:52;14.18;;;12.75;;
55423;SDS011;41294;42.666;23.350;2023-09-18T08:46:25;14.07;;;12.77;;
55423;SDS011;41294;42.666;23.350;2023-09-18T08:48:51;14.38;;;12.95;;
55423;SDS011;41294;42.666;23.350;2023-09-18T08:51:17;14.43;;;13.13;;
55423;SDS011;41294;42.666;23.350;2023-09-18T08:53:43;14.40;;;13.00;;
55423;SDS011;41294;42.666;23.350;2023-09-18T08:56:09;14.93;;;13.05;;
55423;SDS011;41294;42.666;23.350;2023-09-18T08:58:37;14.88;;;13.43;;
55423;SDS011;41294;42.666;23.350;2023-09-18T09:01:07;15.10;;;13.35;;
55423;SDS011;41294;42.666;23.350;2023-09-18T09:03:39;13.52;;;12.38;;
55423;SDS011;41294;42.666;23.350;2023-09-18T09:06:05;13.65;;;12.35;;
55423;SDS011;41294;42.666;23.350;2023-09-18T09:08:32;12.88;;;11.57;;
55423;SDS011;41294;42.666;23.350;2023-09-18T09:10:57;12.88;;;11.68;;
55423;SDS011;41294;42.666;23.350;2023-09-18T09:13:23;12.32;;;11.13;;
55423;SDS011;41294;42.666;23.350;2023-09-18T09:15:51;11.77;;;10.57;;
55423;SDS011;41294;42.666;23.350;2023-09-18T09:18:19;11.82;;;10.73;;
55423;SDS011;41294;42.666;23.350;2023-09-18T09:21:03;12.40;;;11.13;;
55423;SDS011;41294;42.666;23.350;2023-09-18T09:23:49;13.02;;;11.75;;
55423;SDS011;41294;42.666;23.350;2023-09-18T09:26:21;12.63;;;11.43;;
55423;SDS011;41294;42.666;23.350;2023-09-18T09:28:47;13.32;;;12.00;;
55423;SDS011;41294;42.666;23.350;2023-09-18T09:31:26;12.07;;;11.07;;
55423;SDS011;41294;42.666;23.350;2023-09-18T09:33:53;11.77;;;10.68;;
55423;SDS011;41294;42.666;23.350;2023-09-18T09:36:19;11.25;;;10.30;;
55423;SDS011;41294;42.666;23.350;2023-09-18T09:38:45;12.15;;;10.75;;
55423;SDS011;41294;42.666;23.350;2023-09-18T09:41:14;12.68;;;11.48;;
55423;SDS011;41294;42.666;23.350;2023-09-18T09:43:42;12.35;;;11.15;;
55423;SDS011;41294;42.666;23.350;2023-09-18T09:46:18;12.90;;;11.63;;
55423;SDS011;41294;42.666;23.350;2023-09-18T09:51:24;12.75;;;10.18;;
55423;SDS011;41294;42.666;23.350;2023-09-18T09:53:49;10.48;;;9.43;;
55423;SDS011;41294;42.666;23.350;2023-09-18T09:56:16;10.20;;;9.00;;
55423;SDS011;41294;42.666;23.350;2023-09-18T09:59:02;10.25;;;9.25;;
55423;SDS011;41294;42.666;23.350;2023-09-18T10:01:33;10.30;;;9.30;;
55423;SDS011;41294;42.666;23.350;2023-09-18T10:04:00;9.15;;;8.27;;
55423;SDS011;41294;42.666;23.350;2023-09-18T10:06:33;11.63;;;9.30;;
55423;SDS011;41294;42.666;23.350;2023-09-18T10:09:02;10.82;;;8.68;;
55423;SDS011;41294;42.666;23.350;2023-09-18T10:11:29;10.93;;;9.07;;
55423;SDS011;41294;42.666;23.350;2023-09-18T10:13:59;11.93;;;10.70;;
55423;SDS011;41294;42.666;23.350;2023-09-18T10:16:30;11.30;;;9.98;;
55423;SDS011;41294;42.666;23.350;2023-09-18T10:19:09;10.00;;;8.93;;
55423;SDS011;41294;42.666;23.350;2023-09-18T10:24:45;10.95;;;9.25;;
55423;SDS011;41294;42.666;23.350;2023-09-18T10:27:14;10.25;;;9.27;;
55423;SDS011;41294;42.666;23.350;2023-09-18T10:29:43;11.35;;;8.30;;
55423;SDS011;41294;42.666;23.350;2023-09-18T10:32:13;9.63;;;8.60;;
55423;SDS011;41294;42.666;23.350;2023-09-18T10:34:40;8.82;;;7.85;;
55423;SDS011;41294;42.666;23.350;2023-09-18T10:37:08;10.10;;;7.63;;
55423;SDS011;41294;42.666;23.350;2023-09-18T10:39:37;11.10;;;7.38;;
55423;SDS011;41294;42.666;23.350;2023-09-18T10:44:39;8.25;;;7.43;;
55423;SDS011;41294;42.666;23.350;2023-09-18T10:47:06;8.30;;;7.32;;
55423;SDS011;41294;42.666;23.350;2023-09-18T10:49:34;8.00;;;6.85;;
55423;SDS011;41294;42.666;23.350;2023-09-18T10:52:00;7.78;;;7.07;;
55423;SDS011;41294;42.666;23.350;2023-09-18T10:54:27;7.47;;;6.63;;
55423;SDS011;41294;42.666;23.350;2023-09-18T10:56:55;8.10;;;6.70;;
55423;SDS011;41294;42.666;23.350;2023-09-18T10:59:22;7.18;;;6.50;;
55423;SDS011;41294;42.666;23.350;2023-09-18T11:01:49;7.70;;;5.72;;
55423;SDS011;41294;42.666;23.350;2023-09-18T11:04:18;6.45;;;5.90;;
55423;SDS011;41294;42.666;23.350;2023-09-18T11:09:22;6.82;;;6.22;;
55423;SDS011;41294;42.666;23.350;2023-09-18T11:12:08;6.05;;;5.45;;
55423;SDS011;41294;42.666;23.350;2023-09-18T11:14:48;6.70;;;6.10;;
55423;SDS011;41294;42.666;23.350;2023-09-18T11:22:45;5.82;;;5.10;;
55423;SDS011;41294;42.666;23.350;2023-09-18T11:27:59;7.65;;;5.53;;
55423;SDS011;41294;42.666;23.350;2023-09-18T11:30:26;6.45;;;5.75;;
55423;SDS011;41294;42.666;23.350;2023-09-18T11:32:53;6.35;;;5.40;;
55423;SDS011;41294;42.666;23.350;2023-09-18T11:35:20;6.95;;;5.57;;
55423;SDS011;41294;42.666;23.350;2023-09-18T11:37:46;6.20;;;5.47;;
55423;SDS011;41294;42.666;23.350;2023-09-18T11:40:31;8.45;;;5.68;;
55423;SDS011;41294;42.666;23.350;2023-09-18T11:45:54;6.93;;;5.18;;
55423;SDS011;41294;42.666;23.350;2023-09-18T11:48:23;6.85;;;5.38;;
55423;SDS011;41294;42.666;23.350;2023-09-18T11:50:50;6.00;;;5.40;;
55423;SDS011;41294;42.666;23.350;2023-09-18T11:53:17;6.25;;;5.65;;
55423;SDS011;41294;42.666;23.350;2023-09-18T11:55:44;6.10;;;5.50;;
55423;SDS011;41294;42.666;23.350;2023-09-18T11:58:09;5.70;;;5.20;;
55423;SDS011;41294;42.666;23.350;2023-09-18T12:00:35;6.28;;;5.25;;
55423;SDS011;41294;42.666;23.350;2023-09-18T12:03:14;6.05;;;5.13;;
55423;SDS011;41294;42.666;23.350;2023-09-18T12:05:43;6.15;;;5.25;;
55423;SDS011;41294;42.666;23.350;2023-09-18T12:08:11;6.30;;;5.20;;
55423;SDS011;41294;42.666;23.350;2023-09-18T12:10:37;7.30;;;5.90;;
55423;SDS011;41294;42.666;23.350;2023-09-18T12:13:06;5.85;;;5.25;;
55423;SDS011;41294;42.666;23.350;2023-09-18T12:15:36;6.75;;;5.25;;
55423;SDS011;41294;42.666;23.350;2023-09-18T12:18:05;7.05;;;5.18;;
55423;SDS011;41294;42.666;23.350;2023-09-18T12:20:34;6.20;;;5.43;;
55423;SDS011;41294;42.666;23.350;2023-09-18T12:23:01;8.90;;;5.80;;
55423;SDS011;41294;42.666;23.350;2023-09-18T12:25:27;6.97;;;6.28;;
55423;SDS011;41294;42.666;23.350;2023-09-18T12:27:53;7.07;;;5.55;;
55423;SDS011;41294;42.666;23.350;2023-09-18T12:30:20;6.82;;;5.60;;
55423;SDS011;41294;42.666;23.350;2023-09-18T12:32:47;6.75;;;6.05;;
55423;SDS011;41294;42.666;23.350;2023-09-18T12:35:14;8.98;;;5.45;;
55423;SDS011;41294;42.666;23.350;2023-09-18T12:37:39;6.20;;;5.53;;
55423;SDS011;41294;42.666;23.350;2023-09-18T12:40:06;6.53;;;5.93;;
55423;SDS011;41294;42.666;23.350;2023-09-18T12:42:39;6.07;;;5.53;;
55423;SDS011;41294;42.666;23.350;2023-09-18T12:45:07;6.95;;;6.30;;
55423;SDS011;41294;42.666;23.350;2023-09-18T12:47:34;7.18;;;6.47;;
55423;SDS011;41294;42.666;23.350;2023-09-18T12:50:04;6.80;;;6.10;;
55423;SDS011;41294;42.666;23.350;2023-09-18T12:52:31;6.40;;;5.75;;
55423;SDS011;41294;42.666;23.350;2023-09-18T12:54:58;6.25;;;5.65;;
55423;SDS011;41294;42.666;23.350;2023-09-18T12:57:24;6.28;;;5.68;;
55423;SDS011;41294;42.666;23.350;2023-09-18T12:59:50;7.13;;;5.75;;
55423;SDS011;41294;42.666;23.350;2023-09-18T13:02:18;6.22;;;5.63;;
55423;SDS011;41294;42.666;23.350;2023-09-18T13:04:50;8.18;;;5.57;;
55423;SDS011;41294;42.666;23.350;2023-09-18T13:07:17;6.70;;;5.63;;
55423;SDS011;41294;42.666;23.350;2023-09-18T13:09:57;6.10;;;5.47;;
55423;SDS011;41294;42.666;23.350;2023-09-18T13:12:48;7.03;;;5.95;;
55423;SDS011;41294;42.666;23.350;2023-09-18T13:17:54;6.38;;;5.72;;
55423;SDS011;41294;42.666;23.350;2023-09-18T13:20:25;8.55;;;6.22;;
55423;SDS011;41294;42.666;23.350;2023-09-18T13:22:54;6.97;;;6.28;;
55423;SDS011;41294;42.666;23.350;2023-09-18T13:25:39;7.60;;;5.18;;
55423;SDS011;41294;42.666;23.350;2023-09-18T13:28:09;5.53;;;5.03;;
55423;SDS011;41294;42.666;23.350;2023-09-18T13:30:36;6.95;;;6.10;;
55423;SDS011;41294;42.666;23.350;2023-09-18T13:33:09;5.93;;;5.43;;
55423;SDS011;41294;42.666;23.350;2023-09-18T13:35:37;6.45;;;5.78;;
55423;SDS011;41294;42.666;23.350;2023-09-18T13:38:04;8.00;;;5.97;;
55423;SDS011;41294;42.666;23.350;2023-09-18T13:40:31;5.82;;;5.22;;
55423;SDS011;41294;42.666;23.350;2023-09-18T13:42:58;8.73;;;5.70;;
55423;SDS011;41294;42.666;23.350;2023-09-18T13:45:25;6.05;;;5.32;;
55423;SDS011;41294;42.666;23.350;2023-09-18T13:47:51;5.72;;;5.18;;
55423;SDS011;41294;42.666;23.350;2023-09-18T13:50:16;9.65;;;5.43;;
55423;SDS011;41294;42.666;23.350;2023-09-18T13:52:42;6.65;;;5.55;;
55423;SDS011;41294;42.666;23.350;2023-09-18T13:55:07;9.05;;;5.35;;
55423;SDS011;41294;42.666;23.350;2023-09-18T13:57:36;7.38;;;5.18;;
55423;SDS011;41294;42.666;23.350;2023-09-18T14:00:03;6.38;;;5.18;;
55423;SDS011;41294;42.666;23.350;2023-09-18T14:02:31;5.50;;;5.00;;
55423;SDS011;41294;42.666;23.350;2023-09-18T14:04:57;5.25;;;4.75;;
55423;SDS011;41294;42.666;23.350;2023-09-18T14:07:24;9.48;;;5.60;;
55423;SDS011;41294;42.666;23.350;2023-09-18T14:09:49;5.97;;;5.30;;
55423;SDS011;41294;42.666;23.350;2023-09-18T14:12:15;5.72;;;5.20;;
55423;SDS011;41294;42.666;23.350;2023-09-18T14:14:41;7.13;;;5.00;;
55423;SDS011;41294;42.666;23.350;2023-09-18T14:17:07;5.72;;;5.22;;
55423;SDS011;41294;42.666;23.350;2023-09-18T14:19:37;5.68;;;5.18;;
55423;SDS011;41294;42.666;23.350;2023-09-18T14:22:06;10.70;;;5.90;;
55423;SDS011;41294;42.666;23.350;2023-09-18T14:24:32;6.95;;;5.20;;
55423;SDS011;41294;42.666;23.350;2023-09-18T14:26:59;6.53;;;5.93;;
55423;SDS011;41294;42.666;23.350;2023-09-18T14:29:25;5.93;;;5.30;;
55423;SDS011;41294;42.666;23.350;2023-09-18T14:31:51;6.20;;;5.45;;
55423;SDS011;41294;42.666;23.350;2023-09-18T14:34:17;5.82;;;5.32;;
55423;SDS011;41294;42.666;23.350;2023-09-18T14:36:44;6.80;;;5.10;;
55423;SDS011;41294;42.666;23.350;2023-09-18T14:39:10;6.25;;;5.55;;
55423;SDS011;41294;42.666;23.350;2023-09-18T14:41:37;6.32;;;5.28;;
55423;SDS011;41294;42.666;23.350;2023-09-18T14:44:07;5.95;;;5.40;;
55423;SDS011;41294;42.666;23.350;2023-09-18T14:46:34;5.70;;;5.20;;